createdAt,value
2018-04-14T00:00:35.950Z,99.90
2018-04-14T00:03:05.217Z,99.90
2018-04-14T00:05:34.507Z,99.90
2018-04-14T00:08:03.790Z,99.90
2018-04-14T00:10:33.084Z,99.90
2018-04-14T00:13:02.366Z,99.90
2018-04-14T00:15:31.655Z,99.90
2018-04-14T00:18:00.935Z,99.90
2018-04-14T00:20:30.213Z,99.90
2018-04-14T00:22:59.507Z,99.90
2018-04-14T00:25:28.797Z,99.90
2018-04-14T00:27:58.081Z,99.90
2018-04-14T00:30:28.034Z,99.90
2018-04-14T00:32:58.078Z,99.90
2018-04-14T00:35:27.392Z,99.90
2018-04-14T00:37:56.708Z,99.90
2018-04-14T00:40:25.992Z,99.90
2018-04-14T00:42:55.298Z,99.90
2018-04-14T00:45:24.596Z,99.90
2018-04-14T00:47:53.888Z,99.90
2018-04-14T00:50:23.175Z,99.90
2018-04-14T00:52:52.453Z,99.90
2018-04-14T00:55:22.503Z,99.90
2018-04-14T00:57:51.794Z,99.90
2018-04-14T01:00:21.074Z,99.90
2018-04-14T01:02:50.374Z,99.90
2018-04-14T01:05:19.667Z,99.90
2018-04-14T01:07:49.713Z,99.90
2018-04-14T01:10:19.069Z,99.90
2018-04-14T01:12:48.450Z,99.90
2018-04-14T01:15:17.740Z,99.90
2018-04-14T01:17:47.013Z,99.90
2018-04-14T01:20:16.305Z,99.90
2018-04-14T01:22:45.655Z,99.90
2018-04-14T01:25:15.662Z,99.90
2018-04-14T01:27:44.952Z,99.90
2018-04-14T01:30:14.231Z,99.90
2018-04-14T01:32:43.518Z,99.90
2018-04-14T01:35:12.795Z,99.90
2018-04-14T01:37:42.087Z,99.90
2018-04-14T01:40:11.375Z,99.90
2018-04-14T01:42:40.674Z,99.90
2018-04-14T01:45:10.074Z,99.90
2018-04-14T01:47:39.383Z,99.90
2018-04-14T01:50:08.693Z,99.90
2018-04-14T01:52:37.981Z,99.90
2018-04-14T01:55:07.278Z,99.90
2018-04-14T01:57:36.574Z,99.90
2018-04-14T02:00:05.870Z,99.90
2018-04-14T02:02:35.185Z,99.90
2018-04-14T02:05:04.489Z,99.90
2018-04-14T02:07:33.783Z,99.90
2018-04-14T02:10:03.104Z,99.90
2018-04-14T02:12:32.354Z,99.90
2018-04-14T02:15:01.674Z,99.90
2018-04-14T02:17:30.967Z,99.90
2018-04-14T02:20:00.259Z,99.90
2018-04-14T02:22:29.544Z,99.90
2018-04-14T02:24:58.822Z,99.90
2018-04-14T02:27:28.883Z,99.90
2018-04-14T02:29:58.177Z,99.90
2018-04-14T02:32:27.485Z,99.90
2018-04-14T02:34:56.778Z,99.90
2018-04-14T02:37:26.061Z,99.90
2018-04-14T02:39:55.371Z,99.90
2018-04-14T02:42:24.647Z,99.90
2018-04-14T02:44:54.723Z,99.90
2018-04-14T02:47:23.998Z,99.90
2018-04-14T02:49:53.344Z,99.90
2018-04-14T02:52:22.690Z,99.90
2018-04-14T02:54:51.964Z,99.90
2018-04-14T02:57:21.297Z,99.90
2018-04-14T02:59:50.575Z,99.90
2018-04-14T03:02:19.921Z,99.90
2018-04-14T03:04:49.219Z,99.90
2018-04-14T03:07:18.520Z,99.90
2018-04-14T03:09:47.791Z,99.90
2018-04-14T03:12:17.096Z,99.90
2018-04-14T03:14:46.390Z,99.90
2018-04-14T03:17:15.697Z,99.90
2018-04-14T03:19:44.979Z,99.90
2018-04-14T03:22:14.281Z,99.90
2018-04-14T03:24:44.310Z,99.90
2018-04-14T03:27:13.589Z,99.90
2018-04-14T03:29:42.889Z,99.90
2018-04-14T03:32:12.938Z,99.90
2018-04-14T03:34:42.231Z,99.90
2018-04-14T03:37:11.525Z,99.90
2018-04-14T03:39:40.813Z,99.90
2018-04-14T03:42:10.111Z,99.90
2018-04-14T03:44:40.170Z,99.90
2018-04-14T03:47:09.459Z,99.90
2018-04-14T03:49:38.830Z,99.90
2018-04-14T03:52:09.011Z,99.90
2018-04-14T03:54:38.266Z,99.90
2018-04-14T03:57:07.602Z,99.90
2018-04-14T03:59:36.894Z,99.90
2018-04-14T04:02:06.182Z,99.90
2018-04-14T04:04:35.511Z,99.90
2018-04-14T04:07:04.773Z,99.90
2018-04-14T04:09:34.058Z,99.90
2018-04-14T04:12:03.354Z,99.90
2018-04-14T04:14:33.403Z,99.90
2018-04-14T04:17:02.688Z,99.90
2018-04-14T04:19:49.836Z,99.90
2018-04-14T04:22:38.537Z,99.90
2018-04-14T04:25:24.401Z,99.90
2018-04-14T04:27:53.394Z,99.90
2018-04-14T04:30:22.386Z,99.90
2018-04-14T04:32:52.055Z,99.90
2018-04-14T04:35:21.074Z,99.90
2018-04-14T04:37:50.084Z,99.90
2018-04-14T04:40:19.034Z,99.90
2018-04-14T04:42:48.100Z,99.90
2018-04-14T04:45:17.919Z,99.90
2018-04-14T04:47:46.876Z,99.90
2018-04-14T04:50:15.853Z,99.90
2018-04-14T04:52:44.816Z,99.90
2018-04-14T04:55:13.785Z,99.90
2018-04-14T04:57:43.530Z,99.90
2018-04-14T05:00:12.505Z,99.90
2018-04-14T05:02:41.491Z,99.90
2018-04-14T05:05:11.205Z,99.90
2018-04-14T05:07:40.182Z,99.90
2018-04-14T05:10:09.925Z,99.90
2018-04-14T05:12:38.890Z,99.90
2018-04-14T05:15:08.698Z,99.90
2018-04-14T05:17:38.421Z,99.90
2018-04-14T05:20:07.382Z,99.90
2018-04-14T05:22:37.132Z,99.90
2018-04-14T05:25:06.100Z,99.90
2018-04-14T05:27:35.069Z,99.90
2018-04-14T05:30:04.038Z,99.90
2018-04-14T05:32:33.051Z,99.90
2018-04-14T05:35:02.059Z,99.90
2018-04-14T05:37:31.056Z,99.90
2018-04-14T05:40:00.001Z,99.90
2018-04-14T05:42:28.980Z,99.90
2018-04-14T05:44:57.975Z,99.90
2018-04-14T05:47:26.937Z,99.90
2018-04-14T05:49:56.701Z,99.90
2018-04-14T05:52:25.697Z,99.90
2018-04-14T05:54:54.652Z,99.90
2018-04-14T05:57:23.642Z,99.90
2018-04-14T05:59:53.374Z,99.60
2018-04-14T06:02:23.282Z,99.60
2018-04-14T06:04:52.275Z,98.60
2018-04-14T06:07:21.250Z,98.20
2018-04-14T06:09:50.986Z,96.40
2018-04-14T06:12:20.748Z,96.50
2018-04-14T06:14:50.097Z,96.50
2018-04-14T06:17:19.074Z,95.70
2018-04-14T06:19:48.064Z,94.90
2018-04-14T06:22:17.125Z,94.90
2018-04-14T06:24:46.788Z,93.20
2018-04-14T06:27:15.791Z,93.10
2018-04-14T06:29:44.822Z,92.90
2018-04-14T06:32:13.803Z,92.90
2018-04-14T06:34:42.799Z,92.80
2018-04-14T06:37:11.775Z,91.90
2018-04-14T06:39:40.808Z,91.80
2018-04-14T06:42:09.790Z,91.50
2018-04-14T06:44:38.760Z,92.10
2018-04-14T06:47:07.754Z,92.40
2018-04-14T06:49:36.728Z,91.60
2018-04-14T06:52:06.647Z,91.80
2018-04-14T06:54:35.641Z,92.10
2018-04-14T06:57:04.629Z,92.20
2018-04-14T06:59:33.585Z,91.00
2018-04-14T07:02:02.570Z,90.90
2018-04-14T07:04:31.555Z,90.90
2018-04-14T07:07:00.534Z,90.50
2018-04-14T07:09:29.518Z,91.10
2018-04-14T07:11:58.512Z,90.60
2018-04-14T07:14:27.502Z,90.40
2018-04-14T07:16:56.473Z,91.30
2018-04-14T07:19:25.505Z,90.30
2018-04-14T07:21:54.434Z,90.60
2018-04-14T07:24:24.180Z,91.30
2018-04-14T07:26:53.154Z,91.30
2018-04-14T07:29:22.141Z,91.40
2018-04-14T07:31:51.133Z,91.30
2018-04-14T07:34:20.169Z,91.90
2018-04-14T07:36:49.175Z,91.50
2018-04-14T07:39:18.093Z,91.20
2018-04-14T07:41:47.836Z,91.70
2018-04-14T07:44:16.812Z,91.80
2018-04-14T07:46:45.796Z,92.40
2018-04-14T07:49:15.541Z,92.30
2018-04-14T07:51:44.516Z,92.40
2018-04-14T07:54:13.492Z,92.30
2018-04-14T07:56:43.223Z,91.80
2018-04-14T07:59:12.208Z,91.80
2018-04-14T08:01:41.198Z,92.20
2018-04-14T08:04:10.191Z,92.10
2018-04-14T08:06:39.918Z,91.80
2018-04-14T08:09:08.973Z,91.80
2018-04-14T08:11:38.012Z,92.10
2018-04-14T08:14:07.075Z,91.10
2018-04-14T08:16:36.030Z,91.00
2018-04-14T08:19:05.021Z,91.10
2018-04-14T08:21:34.001Z,91.00
2018-04-14T08:24:02.983Z,91.60
2018-04-14T08:26:31.953Z,90.90
2018-04-14T08:29:00.979Z,90.50
2018-04-14T08:31:29.951Z,90.30
2018-04-14T08:33:58.920Z,90.50
2018-04-14T08:36:28.667Z,90.90
2018-04-14T08:38:57.639Z,90.90
2018-04-14T08:41:26.617Z,90.50
2018-04-14T08:43:56.345Z,90.20
2018-04-14T08:46:25.318Z,90.20
2018-04-14T08:48:54.295Z,90.30
2018-04-14T08:51:23.265Z,90.20
2018-04-14T08:53:53.021Z,90.00
2018-04-14T08:56:22.780Z,90.70
2018-04-14T08:58:51.718Z,90.70
2018-04-14T09:01:21.473Z,87.90
2018-04-14T09:03:50.460Z,87.90
2018-04-14T09:06:19.436Z,89.40
2018-04-14T09:08:48.399Z,89.10
2018-04-14T09:11:18.134Z,87.60
2018-04-14T09:13:47.109Z,87.60
2018-04-14T09:16:16.084Z,85.70
2018-04-14T09:18:46.152Z,86.10
2018-04-14T09:21:15.439Z,86.10
2018-04-14T09:23:44.763Z,84.70
2018-04-14T09:26:14.043Z,85.80
2018-04-14T09:28:43.338Z,85.60
2018-04-14T09:31:12.618Z,84.80
2018-04-14T09:33:41.916Z,83.80
2018-04-14T09:36:11.203Z,82.90
2018-04-14T09:38:40.487Z,83.00
2018-04-14T09:41:09.807Z,82.30
2018-04-14T09:43:39.136Z,82.80
2018-04-14T09:46:08.405Z,81.00
2018-04-14T09:48:37.689Z,82.40
2018-04-14T09:51:07.001Z,79.90
2018-04-14T09:53:36.293Z,80.60
2018-04-14T09:56:05.581Z,81.10
2018-04-14T09:58:34.928Z,78.00
2018-04-14T10:01:09.832Z,77.50
2018-04-14T10:03:39.113Z,77.00
2018-04-14T10:06:08.401Z,78.00
2018-04-14T10:08:38.466Z,79.40
2018-04-14T10:11:09.130Z,79.10
2018-04-14T10:13:38.446Z,79.10
2018-04-14T10:16:07.757Z,78.90
2018-04-14T10:18:37.204Z,77.90
2018-04-14T10:21:07.330Z,77.50
2018-04-14T10:23:36.630Z,77.50
2018-04-14T10:26:05.919Z,76.60
2018-04-14T10:28:35.972Z,77.80
2018-04-14T10:31:05.256Z,77.80
2018-04-14T10:33:34.562Z,75.80
2018-04-14T10:36:03.841Z,76.40
2018-04-14T10:38:33.893Z,74.10
2018-04-14T10:41:03.185Z,74.10
2018-04-14T10:43:32.473Z,74.40
2018-04-14T10:46:01.775Z,73.40
2018-04-14T10:48:31.056Z,73.50
2018-04-14T10:51:00.373Z,75.30
2018-04-14T10:53:30.422Z,72.70
2018-04-14T10:55:59.742Z,72.50
2018-04-14T10:58:29.026Z,73.00
2018-04-14T11:00:58.323Z,73.60
2018-04-14T11:03:27.603Z,74.30
2018-04-14T11:05:56.882Z,72.50
2018-04-14T11:08:26.975Z,74.30
2018-04-14T11:10:56.276Z,74.20
2018-04-14T11:13:25.560Z,73.50
2018-04-14T11:15:54.866Z,73.20
2018-04-14T11:18:24.150Z,71.70
2018-04-14T11:20:53.460Z,72.00
2018-04-14T11:23:22.833Z,70.80
2018-04-14T11:25:52.864Z,73.70
2018-04-14T11:28:23.755Z,73.60
2018-04-14T11:30:53.042Z,72.80
2018-04-14T11:33:22.340Z,72.10
2018-04-14T11:35:51.654Z,72.80
2018-04-14T11:38:20.942Z,71.10
2018-04-14T11:40:50.239Z,71.40
2018-04-14T11:43:19.892Z,72.80
2018-04-14T11:45:49.163Z,71.00
2018-04-14T11:50:54.036Z,71.80
2018-04-14T11:53:24.106Z,69.20
2018-04-14T11:55:53.399Z,69.20
2018-04-14T11:58:22.694Z,67.30
2018-04-14T12:00:52.021Z,67.90
2018-04-14T12:03:21.329Z,68.20
2018-04-14T12:05:50.617Z,65.90
2018-04-14T12:08:20.798Z,68.80
2018-04-14T12:10:50.097Z,68.80
2018-04-14T12:13:19.709Z,66.00
2018-04-14T12:15:48.972Z,65.80
2018-04-14T12:18:19.045Z,66.70
2018-04-14T12:20:48.353Z,66.60
2018-04-14T12:23:17.657Z,63.90
2018-04-14T12:25:46.967Z,63.30
2018-04-14T12:28:16.242Z,62.00
2018-04-14T12:30:45.519Z,65.80
2018-04-14T12:33:14.825Z,65.60
2018-04-14T12:35:44.092Z,65.30
2018-04-14T12:38:14.143Z,64.50
2018-04-14T12:40:43.458Z,64.50
2018-04-14T12:43:12.812Z,65.20
2018-04-14T12:45:42.875Z,63.00
2018-04-14T12:48:12.209Z,63.00
2018-04-14T12:50:41.526Z,64.40
2018-04-14T12:53:10.798Z,63.10
2018-04-14T12:55:40.091Z,63.10
2018-04-14T12:58:09.445Z,63.00
2018-04-14T13:00:38.744Z,64.00
2018-04-14T13:03:08.062Z,61.60
2018-04-14T13:05:37.364Z,61.90
2018-04-14T13:08:07.420Z,60.80
2018-04-14T13:10:36.709Z,60.60
2018-04-14T13:13:06.005Z,60.10
2018-04-14T13:15:35.355Z,61.50
2018-04-14T13:18:04.632Z,60.30
2018-04-14T13:20:33.937Z,62.10
2018-04-14T13:23:03.218Z,62.20
2018-04-14T13:25:32.510Z,62.20
2018-04-14T13:28:01.873Z,63.10
2018-04-14T13:30:31.165Z,63.90
2018-04-14T13:33:01.281Z,61.80
2018-04-14T13:35:31.367Z,62.00
2018-04-14T13:38:01.449Z,61.90
2018-04-14T13:40:30.770Z,61.70
2018-04-14T13:43:00.072Z,60.80
2018-04-14T13:45:29.522Z,62.40
2018-04-14T13:47:59.599Z,60.80
2018-04-14T13:50:28.882Z,60.60
2018-04-14T13:52:58.190Z,60.00
2018-04-14T13:55:27.485Z,60.00
2018-04-14T13:57:56.783Z,59.60
2018-04-14T14:00:26.089Z,59.30
2018-04-14T14:02:55.379Z,59.50
2018-04-14T14:05:24.663Z,60.50
2018-04-14T14:07:53.964Z,59.20
2018-04-14T14:10:24.012Z,59.10
2018-04-14T14:12:53.324Z,59.00
2018-04-14T14:15:22.612Z,58.30
2018-04-14T14:17:51.904Z,58.00
2018-04-14T14:20:21.192Z,56.60
2018-04-14T14:22:50.487Z,57.30
2018-04-14T14:25:19.780Z,56.30
2018-04-14T14:27:49.092Z,56.30
2018-04-14T14:30:18.386Z,55.50
2018-04-14T14:32:47.674Z,55.30
2018-04-14T14:35:16.959Z,56.80
2018-04-14T14:37:47.035Z,53.30
2018-04-14T14:40:16.322Z,53.30
2018-04-14T14:42:46.185Z,53.40
2018-04-14T14:45:16.273Z,52.00
2018-04-14T14:47:45.611Z,52.00
2018-04-14T14:50:20.431Z,53.30
2018-04-14T14:52:49.714Z,52.30
2018-04-14T14:55:19.049Z,52.80
2018-04-14T14:57:48.333Z,52.30
2018-04-14T15:00:17.635Z,53.20
2018-04-14T15:02:46.977Z,52.20
2018-04-14T15:05:16.243Z,52.70
2018-04-14T15:07:45.687Z,50.30
2018-04-14T15:10:15.150Z,53.10
2018-04-14T15:12:44.480Z,50.90
2018-04-14T15:15:13.791Z,50.30
2018-04-14T15:17:43.091Z,50.80
2018-04-14T15:20:12.385Z,51.90
2018-04-14T15:22:41.671Z,53.10
2018-04-14T15:25:11.741Z,51.70
2018-04-14T15:27:41.036Z,51.80
2018-04-14T15:30:10.319Z,52.70
2018-04-14T15:32:39.611Z,52.60
2018-04-14T15:35:08.914Z,53.00
2018-04-14T15:37:38.236Z,52.10
2018-04-14T15:40:07.524Z,52.30
2018-04-14T15:42:36.828Z,53.90
2018-04-14T15:45:06.111Z,51.60
2018-04-14T15:47:35.398Z,52.00
2018-04-14T15:50:04.705Z,52.70
2018-04-14T15:52:34.025Z,52.40
2018-04-14T15:55:03.303Z,51.40
2018-04-14T15:57:32.640Z,52.90
2018-04-14T16:00:01.939Z,52.40
2018-04-14T16:02:31.217Z,52.40
2018-04-14T16:05:00.560Z,53.10
2018-04-14T16:07:29.851Z,53.80
2018-04-14T16:10:00.170Z,54.30
2018-04-14T16:12:29.478Z,53.90
2018-04-14T16:14:58.796Z,54.40
2018-04-14T16:17:28.050Z,54.90
2018-04-14T16:19:57.352Z,55.30
2018-04-14T16:22:26.639Z,55.30
2018-04-14T16:24:55.950Z,55.10
2018-04-14T16:27:25.251Z,55.50
2018-04-14T16:29:54.553Z,56.40
2018-04-14T16:32:24.620Z,56.20
2018-04-14T16:34:53.893Z,56.20
2018-04-14T16:37:23.211Z,56.60
2018-04-14T16:39:52.521Z,57.60
2018-04-14T16:42:22.574Z,57.50
2018-04-14T16:44:51.872Z,57.40
2018-04-14T16:47:21.163Z,57.20
2018-04-14T16:49:50.466Z,57.80
2018-04-14T16:52:20.907Z,56.70
2018-04-14T16:54:50.256Z,56.70
2018-04-14T16:57:19.521Z,58.00
2018-04-14T16:59:48.810Z,58.10
2018-04-14T17:02:18.111Z,57.30
2018-04-14T17:04:47.388Z,57.90
2018-04-14T17:07:17.469Z,57.40
2018-04-14T17:09:46.792Z,57.40
2018-04-14T17:12:16.095Z,57.30
2018-04-14T17:14:45.381Z,58.30
2018-04-14T17:17:14.703Z,57.50
2018-04-14T17:19:44.014Z,57.20
2018-04-14T17:22:13.318Z,57.50
2018-04-14T17:24:42.633Z,57.80
2018-04-14T17:27:11.891Z,57.90
2018-04-14T17:29:41.185Z,57.80
2018-04-14T17:32:10.498Z,58.00
2018-04-14T17:34:39.767Z,57.70
2018-04-14T17:37:09.095Z,58.20
2018-04-14T17:39:39.314Z,58.60
2018-04-14T17:42:08.594Z,58.90
2018-04-14T17:44:37.874Z,58.70
2018-04-14T17:47:07.173Z,57.20
2018-04-14T17:49:36.455Z,58.00
2018-04-14T17:52:05.736Z,57.50
2018-04-14T17:54:35.803Z,58.20
2018-04-14T17:57:05.086Z,58.20
2018-04-14T17:59:34.375Z,58.30
2018-04-14T18:02:03.655Z,58.70
2018-04-14T18:04:33.748Z,61.60
2018-04-14T18:07:03.065Z,60.70
2018-04-14T18:09:32.348Z,61.90
2018-04-14T18:12:01.604Z,63.30
2018-04-14T18:14:30.888Z,64.30
2018-04-14T18:17:00.178Z,65.30
2018-04-14T18:19:29.456Z,66.00
2018-04-14T18:21:58.752Z,66.60
2018-04-14T18:24:28.022Z,67.40
2018-04-14T18:26:58.126Z,68.20
2018-04-14T18:29:27.431Z,68.20
2018-04-14T18:31:56.768Z,68.80
2018-04-14T18:34:26.038Z,69.50
2018-04-14T18:36:55.335Z,70.20
2018-04-14T18:39:24.629Z,71.20
2018-04-14T18:41:53.918Z,71.70
2018-04-14T18:44:23.212Z,72.50
2018-04-14T18:46:52.497Z,73.40
2018-04-14T18:49:22.545Z,74.10
2018-04-14T18:51:51.834Z,74.10
2018-04-14T18:54:21.245Z,74.60
2018-04-14T18:56:50.510Z,77.30
2018-04-14T18:59:20.575Z,76.20
2018-04-14T19:01:49.866Z,76.10
2018-04-14T19:04:19.182Z,78.30
2018-04-14T19:06:48.491Z,78.70
2018-04-14T19:09:17.771Z,78.40
2018-04-14T19:11:47.073Z,76.50
2018-04-14T19:14:16.368Z,76.90
2018-04-14T19:16:45.660Z,76.60
2018-04-14T19:19:14.965Z,77.00
2018-04-14T19:21:44.245Z,78.20
2018-04-14T19:24:13.560Z,80.00
2018-04-14T19:26:43.627Z,80.80
2018-04-14T19:29:13.106Z,80.80
2018-04-14T19:31:42.415Z,81.30
2018-04-14T19:34:11.718Z,81.10
2018-04-14T19:36:41.018Z,81.70
2018-04-14T19:39:10.336Z,81.10
2018-04-14T19:41:39.717Z,83.30
2018-04-14T19:44:09.076Z,83.30
2018-04-14T19:46:39.908Z,85.50
2018-04-14T19:49:09.978Z,85.60
2018-04-14T19:51:39.297Z,85.70
2018-04-14T19:56:44.840Z,86.60
2018-04-14T19:59:14.138Z,86.60
2018-04-14T20:01:43.449Z,87.00
2018-04-14T20:04:12.751Z,88.10
2018-04-14T20:06:43.044Z,87.50
2018-04-14T20:09:12.353Z,89.10
2018-04-14T20:11:41.648Z,89.50
2018-04-14T20:14:10.953Z,90.10
2018-04-14T20:16:40.254Z,90.40
2018-04-14T20:19:09.603Z,90.60
2018-04-14T20:21:38.899Z,90.70
2018-04-14T20:24:08.199Z,90.60
2018-04-14T20:26:37.501Z,90.40
2018-04-14T20:29:06.796Z,90.80
2018-04-14T20:31:36.121Z,91.20
2018-04-14T20:34:06.188Z,91.40
2018-04-14T20:36:35.485Z,91.40
2018-04-14T20:39:05.247Z,91.50
2018-04-14T20:41:35.311Z,92.30
2018-04-14T20:44:04.605Z,92.30
2018-04-14T20:46:33.888Z,91.80
2018-04-14T20:49:03.201Z,92.60
2018-04-14T20:51:32.576Z,92.60
2018-04-14T20:54:01.887Z,92.80
2018-04-14T20:56:31.194Z,92.90
2018-04-14T20:59:00.541Z,93.10
2018-04-14T21:01:29.811Z,93.50
2018-04-14T21:03:59.124Z,93.40
2018-04-14T21:06:28.430Z,93.30
2018-04-14T21:08:57.745Z,93.30
2018-04-14T21:11:27.046Z,94.00
2018-04-14T21:13:56.353Z,93.90
2018-04-14T21:16:25.647Z,94.00
2018-04-14T21:18:54.994Z,94.20
2018-04-14T21:21:24.245Z,94.10
2018-04-14T21:23:53.562Z,94.10
2018-04-14T21:26:22.853Z,94.20
2018-04-14T21:28:52.140Z,94.60
2018-04-14T21:31:21.436Z,94.70
2018-04-14T21:33:50.735Z,94.80
2018-04-14T21:36:20.036Z,94.70
2018-04-14T21:38:49.335Z,94.60
2018-04-14T21:41:18.633Z,94.90
2018-04-14T21:43:47.927Z,94.80
2018-04-14T21:46:17.281Z,94.80
2018-04-14T21:48:46.587Z,94.70
2018-04-14T21:51:16.679Z,94.90
2018-04-14T21:53:46.003Z,94.90
2018-04-14T21:56:15.258Z,94.70
2018-04-14T21:58:44.572Z,94.90
2018-04-14T22:01:15.742Z,95.00
2018-04-14T22:03:45.802Z,95.10
2018-04-14T22:06:15.103Z,95.10
2018-04-14T22:08:44.419Z,94.90
2018-04-14T22:11:13.710Z,95.30
2018-04-14T22:13:43.013Z,95.40
2018-04-14T22:16:12.317Z,95.70
2018-04-14T22:18:41.666Z,95.50
2018-04-14T22:21:10.970Z,96.30
2018-04-14T22:23:41.046Z,96.50
2018-04-14T22:26:10.362Z,96.50
2018-04-14T22:28:39.652Z,96.30
2018-04-14T22:31:09.015Z,96.20
2018-04-14T22:33:39.056Z,96.10
2018-04-14T22:36:08.387Z,96.10
2018-04-14T22:38:37.673Z,96.10
2018-04-14T22:41:06.971Z,95.90
2018-04-14T22:43:36.270Z,96.00
2018-04-14T22:46:05.567Z,96.30
2018-04-14T22:48:34.873Z,96.30
2018-04-14T22:51:04.166Z,96.20
2018-04-14T22:53:33.455Z,96.20
2018-04-14T22:56:02.769Z,96.10
2018-04-14T22:58:32.114Z,95.90
2018-04-14T23:01:01.448Z,96.10
2018-04-14T23:03:30.719Z,96.10
2018-04-14T23:06:00.779Z,96.20
2018-04-14T23:08:30.081Z,96.10
2018-04-14T23:10:59.373Z,96.20
2018-04-14T23:13:28.660Z,96.20
2018-04-14T23:15:57.980Z,96.30
2018-04-14T23:18:27.258Z,96.20
2018-04-14T23:20:56.576Z,96.20
2018-04-14T23:23:25.864Z,96.40
2018-04-14T23:25:55.160Z,96.30
2018-04-14T23:28:24.466Z,96.40
2018-04-14T23:30:53.775Z,96.40
2018-04-14T23:33:23.271Z,96.30
2018-04-14T23:35:52.584Z,96.40
2018-04-14T23:38:21.869Z,96.20
2018-04-14T23:40:51.178Z,96.50
2018-04-14T23:43:20.491Z,96.50
2018-04-14T23:45:49.785Z,96.30
2018-04-14T23:48:19.066Z,96.40
2018-04-14T23:50:48.370Z,96.50
2018-04-14T23:53:17.659Z,96.60
2018-04-14T23:55:46.966Z,96.60
2018-04-14T23:58:16.258Z,96.60
